TAF Text Data
IDs:
Format:
Raw Decoded Include METAR

Data at: 0057 UTC 14 May 2021

KBWI 132320Z 1400/1506 31006KT P6SM SCT100
  FM140300 29003KT P6SM FEW080
  FM141500 34005KT P6SM SCT060
  FM150000 25003KT P6SM FEW250